createdAt,value
2018-06-03T00:00:32.057Z,20.37
2018-06-03T00:01:32.032Z,20.37
2018-06-03T00:02:32.011Z,20.37
2018-06-03T00:03:32.013Z,20.37
2018-06-03T00:04:32.063Z,20.37
2018-06-03T00:05:31.965Z,20.37
2018-06-03T00:06:31.976Z,20.37
2018-06-03T00:07:32.180Z,20.37
2018-06-03T00:08:31.993Z,20.31
2018-06-03T00:09:32.028Z,20.31
2018-06-03T00:10:32.054Z,20.31
2018-06-03T00:11:31.988Z,20.31
2018-06-03T00:12:32.006Z,20.31
2018-06-03T00:13:31.962Z,20.25
2018-06-03T00:14:31.963Z,20.25
2018-06-03T00:15:31.990Z,20.31
2018-06-03T00:16:32.356Z,20.25
2018-06-03T00:17:31.973Z,20.25
2018-06-03T00:18:31.977Z,20.25
2018-06-03T00:19:31.977Z,20.25
2018-06-03T00:20:32.036Z,20.19
2018-06-03T00:21:32.112Z,20.19
2018-06-03T00:22:32.052Z,20.19
2018-06-03T00:23:32.041Z,20.19
2018-06-03T00:24:32.050Z,20.19
2018-06-03T00:25:31.964Z,20.19
2018-06-03T00:26:32.029Z,20.19
2018-06-03T00:27:31.974Z,20.12
2018-06-03T00:28:32.082Z,20.12
2018-06-03T00:29:31.980Z,20.12
2018-06-03T00:30:31.981Z,20.06
2018-06-03T00:31:31.941Z,20.06
2018-06-03T00:32:32.142Z,20.06
2018-06-03T00:33:32.049Z,20.06
2018-06-03T00:34:31.996Z,20
2018-06-03T00:35:32.000Z,20
2018-06-03T00:36:31.967Z,19.94
2018-06-03T00:37:32.015Z,19.94
2018-06-03T00:38:32.013Z,19.94
2018-06-03T00:39:32.023Z,19.94
2018-06-03T00:40:32.096Z,19.94
2018-06-03T00:41:32.111Z,19.87
2018-06-03T00:42:32.024Z,19.87
2018-06-03T00:43:31.973Z,19.81
2018-06-03T00:44:31.989Z,19.81
2018-06-03T00:45:32.002Z,19.75
2018-06-03T00:46:32.036Z,19.75
2018-06-03T00:47:31.987Z,19.75
2018-06-03T00:48:32.101Z,19.69
2018-06-03T00:49:32.708Z,19.69
2018-06-03T00:50:32.687Z,19.62
2018-06-03T00:51:32.712Z,19.56
2018-06-03T00:52:32.733Z,19.62
2018-06-03T00:53:32.724Z,19.56
2018-06-03T00:54:32.923Z,19.56
2018-06-03T00:55:32.772Z,19.56
2018-06-03T00:56:32.729Z,19.56
2018-06-03T00:57:32.725Z,19.56
2018-06-03T00:58:32.700Z,19.5
2018-06-03T00:59:32.716Z,19.56
2018-06-03T01:00:32.714Z,19.56
2018-06-03T01:01:32.707Z,19.5
2018-06-03T01:02:32.685Z,19.56
2018-06-03T01:03:32.809Z,19.5
2018-06-03T01:04:32.659Z,19.5
2018-06-03T01:05:32.732Z,19.5
2018-06-03T01:06:32.838Z,19.44
2018-06-03T01:07:33.054Z,19.44
2018-06-03T01:08:32.697Z,19.44
2018-06-03T01:09:32.872Z,19.37
2018-06-03T01:10:32.938Z,19.44
2018-06-03T01:11:32.768Z,19.37
2018-06-03T01:12:32.732Z,19.37
2018-06-03T01:13:32.729Z,19.37
2018-06-03T01:14:32.825Z,19.37
2018-06-03T01:15:32.775Z,19.37
2018-06-03T01:16:32.701Z,19.37
2018-06-03T01:17:32.724Z,19.37
2018-06-03T01:18:32.755Z,19.37
2018-06-03T01:19:32.761Z,19.37
2018-06-03T01:20:32.655Z,19.37
2018-06-03T01:21:32.724Z,19.44
2018-06-03T01:22:32.835Z,19.37
2018-06-03T01:23:32.714Z,19.44
2018-06-03T01:24:32.782Z,19.37
2018-06-03T01:25:32.689Z,19.37
2018-06-03T01:26:32.741Z,19.37
2018-06-03T01:27:32.803Z,19.37
2018-06-03T01:28:32.653Z,19.31
2018-06-03T01:29:32.909Z,19.37
2018-06-03T01:30:32.716Z,19.25
2018-06-03T01:31:32.900Z,19.25
2018-06-03T01:32:32.745Z,19.25
2018-06-03T01:33:32.818Z,19.19
2018-06-03T01:34:32.699Z,19.25
2018-06-03T01:35:33.028Z,19.19
2018-06-03T01:36:32.785Z,19.19
2018-06-03T01:37:32.708Z,19.19
2018-06-03T01:38:32.772Z,19.19
2018-06-03T01:39:32.999Z,19.19
2018-06-03T01:40:32.813Z,19.12
2018-06-03T01:41:32.838Z,19.19
2018-06-03T01:42:33.032Z,19.19
2018-06-03T01:43:32.879Z,19.19
2018-06-03T01:44:32.816Z,19.12
2018-06-03T01:45:32.720Z,19.12
2018-06-03T01:46:32.753Z,19.06
2018-06-03T01:47:32.831Z,19.12
2018-06-03T01:48:32.197Z,19.06
2018-06-03T01:49:32.934Z,19.06
2018-06-03T01:50:32.064Z,19.06
2018-06-03T01:51:33.015Z,19.06
2018-06-03T01:52:32.805Z,19
2018-06-03T01:53:32.021Z,19
2018-06-03T01:54:32.719Z,18.94
2018-06-03T01:55:32.053Z,18.94
2018-06-03T01:56:32.046Z,18.94
2018-06-03T01:57:32.042Z,18.94
2018-06-03T01:58:32.028Z,18.94
2018-06-03T01:59:32.779Z,18.87
2018-06-03T02:00:33.036Z,18.81
2018-06-03T02:01:32.008Z,18.75
2018-06-03T02:02:33.151Z,18.75
2018-06-03T02:03:32.009Z,18.75
2018-06-03T02:04:32.079Z,18.69
2018-06-03T02:05:32.029Z,18.69
2018-06-03T02:06:32.027Z,18.62
2018-06-03T02:07:32.007Z,18.62
2018-06-03T02:08:32.060Z,18.69
2018-06-03T02:09:33.128Z,18.69
2018-06-03T02:10:32.040Z,18.69
2018-06-03T02:11:32.084Z,18.69
2018-06-03T02:12:32.041Z,18.69
2018-06-03T02:13:32.743Z,18.69
2018-06-03T02:14:32.742Z,18.69
2018-06-03T02:15:32.048Z,18.62
2018-06-03T02:16:32.022Z,18.62
2018-06-03T02:17:32.735Z,18.62
2018-06-03T02:18:32.058Z,18.62
2018-06-03T02:19:32.760Z,18.56
2018-06-03T02:20:33.499Z,18.56
2018-06-03T02:21:32.958Z,18.56
2018-06-03T02:22:32.739Z,18.56
2018-06-03T02:23:32.066Z,18.56
2018-06-03T02:24:32.036Z,18.56
2018-06-03T02:25:32.829Z,18.56
2018-06-03T02:26:32.774Z,18.56
2018-06-03T02:27:32.093Z,18.56
2018-06-03T02:28:32.043Z,18.56
2018-06-03T02:29:32.785Z,18.62
2018-06-03T02:30:32.077Z,18.62
2018-06-03T02:31:32.100Z,18.56
2018-06-03T02:32:32.763Z,18.56
2018-06-03T02:33:32.769Z,18.56
2018-06-03T02:34:32.072Z,18.5
2018-06-03T02:35:32.763Z,18.5
2018-06-03T02:36:32.803Z,18.44
2018-06-03T02:37:32.757Z,18.44
2018-06-03T02:38:32.056Z,18.44
2018-06-03T02:39:32.761Z,18.44
2018-06-03T02:40:32.832Z,18.44
2018-06-03T02:41:32.754Z,18.44
2018-06-03T02:42:32.756Z,18.44
2018-06-03T02:43:32.880Z,18.44
2018-06-03T02:44:32.106Z,18.5
2018-06-03T02:45:33.486Z,18.44
2018-06-03T02:46:32.775Z,18.44
2018-06-03T02:47:32.097Z,18.44
2018-06-03T02:48:32.593Z,18.37
2018-06-03T02:49:32.070Z,18.44
2018-06-03T02:50:32.103Z,18.44
2018-06-03T02:51:32.142Z,18.37
2018-06-03T02:52:32.113Z,18.37
2018-06-03T02:53:32.101Z,18.37
2018-06-03T02:54:32.064Z,18.37
2018-06-03T02:55:32.239Z,18.37
2018-06-03T02:56:32.159Z,18.37
2018-06-03T02:57:32.089Z,18.37
2018-06-03T02:58:32.068Z,18.37
2018-06-03T02:59:32.078Z,18.37
2018-06-03T03:00:32.089Z,18.31
2018-06-03T03:01:32.084Z,18.25
2018-06-03T03:02:32.091Z,18.31
2018-06-03T03:03:32.350Z,18.25
2018-06-03T03:04:32.140Z,18.31
2018-06-03T03:05:32.121Z,18.31
2018-06-03T03:06:32.072Z,18.25
2018-06-03T03:07:32.091Z,18.31
2018-06-03T03:08:32.066Z,18.25
2018-06-03T03:09:32.114Z,18.25
2018-06-03T03:10:32.110Z,18.25
2018-06-03T03:11:32.096Z,18.25
2018-06-03T03:12:32.097Z,18.25
2018-06-03T03:13:32.088Z,18.25
2018-06-03T03:14:32.117Z,18.25
2018-06-03T03:15:32.078Z,18.25
2018-06-03T03:16:32.097Z,18.25
2018-06-03T03:17:32.085Z,18.25
2018-06-03T03:18:32.086Z,18.25
2018-06-03T03:19:32.089Z,18.19
2018-06-03T03:20:32.075Z,18.25
2018-06-03T03:21:33.172Z,18.25
2018-06-03T03:22:32.093Z,18.19
2018-06-03T03:23:32.074Z,18.19
2018-06-03T03:29:53.603Z,18.19
2018-06-03T03:30:53.686Z,18.19
2018-06-03T03:31:53.668Z,18.12
2018-06-03T03:32:53.676Z,18.12
2018-06-03T03:33:53.596Z,18.12
2018-06-03T03:34:53.649Z,18.12
2018-06-03T03:35:53.674Z,18.06
2018-06-03T03:36:53.649Z,18.06
2018-06-03T03:37:53.586Z,18.12
2018-06-03T03:38:53.644Z,18
2018-06-03T03:39:53.640Z,18.06
2018-06-03T03:40:53.619Z,18.06
2018-06-03T03:41:53.629Z,18
2018-06-03T03:42:53.655Z,18.06
2018-06-03T03:43:53.638Z,18
2018-06-03T03:44:53.649Z,18
2018-06-03T03:45:53.596Z,17.94
2018-06-03T03:46:53.631Z,17.87
2018-06-03T03:47:53.602Z,17.87
2018-06-03T03:48:53.673Z,17.81
2018-06-03T03:49:53.606Z,17.81
2018-06-03T03:50:53.622Z,17.81
2018-06-03T03:51:53.631Z,17.75
2018-06-03T03:52:53.642Z,17.81
2018-06-03T03:53:53.629Z,17.69
2018-06-03T03:54:53.930Z,17.69
2018-06-03T03:55:53.631Z,17.69
2018-06-03T03:56:53.643Z,17.69
2018-06-03T03:57:53.733Z,17.69
2018-06-03T03:58:53.630Z,17.69
2018-06-03T03:59:53.584Z,17.69
2018-06-03T04:00:53.598Z,17.69
2018-06-03T04:01:53.629Z,17.69
2018-06-03T04:02:53.740Z,17.62
2018-06-03T04:03:53.596Z,17.69
2018-06-03T04:04:53.635Z,17.69
2018-06-03T04:05:53.585Z,17.62
2018-06-03T04:06:53.626Z,17.62
2018-06-03T04:07:53.750Z,17.69
2018-06-03T04:08:53.608Z,17.69
2018-06-03T04:09:53.770Z,17.69
2018-06-03T04:10:53.675Z,17.69
2018-06-03T04:11:53.581Z,17.69
2018-06-03T04:12:53.623Z,17.75
2018-06-03T04:13:53.699Z,17.75
2018-06-03T04:14:53.636Z,17.75
2018-06-03T04:15:53.644Z,17.81
2018-06-03T04:16:53.782Z,17.75
2018-06-03T04:17:53.622Z,17.81
2018-06-03T04:18:53.575Z,17.81
2018-06-03T04:19:53.597Z,17.81
2018-06-03T04:20:53.677Z,17.81
2018-06-03T04:21:53.583Z,17.87
2018-06-03T04:22:53.623Z,17.81
2018-06-03T04:23:53.634Z,17.87
2018-06-03T04:24:53.603Z,17.94
2018-06-03T04:25:53.814Z,17.94
2018-06-03T04:26:53.932Z,17.94
2018-06-03T04:27:54.014Z,17.94
2018-06-03T04:28:55.696Z,17.94
2018-06-03T04:29:53.590Z,17.87
2018-06-03T04:30:53.707Z,17.87
2018-06-03T04:31:53.583Z,17.94
2018-06-03T04:32:53.621Z,17.87
2018-06-03T04:33:53.594Z,17.87
2018-06-03T04:34:53.614Z,17.94
2018-06-03T04:35:53.678Z,17.94
2018-06-03T04:36:53.695Z,17.94
2018-06-03T04:37:53.666Z,17.87
2018-06-03T04:38:53.651Z,18
2018-06-03T04:39:53.579Z,17.94
2018-06-03T04:40:53.597Z,17.94
2018-06-03T04:41:53.573Z,17.94
2018-06-03T04:42:53.584Z,17.94
2018-06-03T04:43:53.591Z,17.94
2018-06-03T04:44:53.693Z,17.94
2018-06-03T04:45:53.591Z,17.94
2018-06-03T04:46:53.589Z,17.94
2018-06-03T04:47:53.575Z,17.94
2018-06-03T04:48:53.578Z,17.87
2018-06-03T04:49:55.099Z,17.94
2018-06-03T04:50:53.570Z,17.87
2018-06-03T04:51:53.647Z,17.94
2018-06-03T04:52:53.604Z,17.94
2018-06-03T04:53:53.556Z,17.87
2018-06-03T04:54:53.562Z,17.87
2018-06-03T04:55:53.612Z,17.87
2018-06-03T04:56:53.571Z,17.94
2018-06-03T04:57:53.595Z,17.87
2018-06-03T04:58:53.632Z,17.87
2018-06-03T04:59:53.599Z,17.94
2018-06-03T05:00:53.587Z,17.87
2018-06-03T05:01:53.584Z,17.87
2018-06-03T05:02:53.589Z,17.81
2018-06-03T05:03:53.602Z,17.81
2018-06-03T05:04:53.589Z,17.87
2018-06-03T05:05:53.577Z,17.81
2018-06-03T05:06:53.556Z,17.75
2018-06-03T05:07:53.655Z,17.75
2018-06-03T05:08:53.584Z,17.75
2018-06-03T05:09:53.643Z,17.81
2018-06-03T05:10:53.651Z,17.75
2018-06-03T05:11:53.607Z,17.69
2018-06-03T05:12:53.593Z,17.62
2018-06-03T05:13:53.559Z,17.62
2018-06-03T05:14:53.576Z,17.62
2018-06-03T05:15:53.574Z,17.62
2018-06-03T05:16:53.775Z,17.56
2018-06-03T05:17:53.584Z,17.69
2018-06-03T05:18:53.610Z,17.69
2018-06-03T05:19:53.550Z,17.69
2018-06-03T05:20:53.599Z,17.75
2018-06-03T05:21:53.724Z,17.69
2018-06-03T05:22:53.586Z,17.81
2018-06-03T05:23:53.571Z,17.81
2018-06-03T05:24:53.555Z,17.87
2018-06-03T05:25:53.600Z,17.94
2018-06-03T05:26:53.603Z,17.87
2018-06-03T05:27:53.562Z,17.87
2018-06-03T05:28:53.556Z,17.87
2018-06-03T05:29:53.573Z,17.87
2018-06-03T05:30:53.578Z,17.94
2018-06-03T05:31:53.586Z,17.81
2018-06-03T05:32:53.564Z,17.87
2018-06-03T05:33:53.599Z,17.81
2018-06-03T05:34:53.554Z,17.81
2018-06-03T05:35:53.536Z,17.81
2018-06-03T05:36:53.542Z,17.81
2018-06-03T05:37:53.530Z,17.81
2018-06-03T05:38:53.569Z,17.87
2018-06-03T05:39:53.548Z,17.87
2018-06-03T05:40:53.562Z,17.87
2018-06-03T05:41:54.309Z,17.94
2018-06-03T05:42:53.581Z,17.94
2018-06-03T05:43:56.178Z,18.06
2018-06-03T05:44:53.581Z,18.06
2018-06-03T05:45:53.537Z,18.12
2018-06-03T05:46:53.545Z,18.19
2018-06-03T05:47:53.596Z,18.19
2018-06-03T05:48:53.574Z,18.19
2018-06-03T05:49:53.561Z,18.25
2018-06-03T05:50:53.590Z,18.31
2018-06-03T05:51:53.567Z,18.37
2018-06-03T05:52:53.616Z,18.31
2018-06-03T05:53:53.543Z,18.37
2018-06-03T05:54:53.575Z,18.37
2018-06-03T05:55:54.159Z,18.37
2018-06-03T05:56:53.656Z,18.44
2018-06-03T05:57:53.659Z,18.44
2018-06-03T05:58:53.580Z,18.5
2018-06-03T05:59:53.619Z,18.5
2018-06-03T06:00:53.833Z,18.56
2018-06-03T06:01:53.573Z,18.56
2018-06-03T06:02:53.555Z,18.56
2018-06-03T06:03:53.596Z,18.62
2018-06-03T06:04:53.521Z,18.69
2018-06-03T06:05:53.622Z,18.69
2018-06-03T06:06:53.598Z,18.75
2018-06-03T06:07:53.542Z,18.69
2018-06-03T06:08:53.523Z,18.62
2018-06-03T06:09:53.534Z,18.62
2018-06-03T06:10:53.544Z,18.62
2018-06-03T06:11:53.550Z,18.62
2018-06-03T06:12:53.583Z,18.62
2018-06-03T06:13:53.585Z,18.69
2018-06-03T06:14:53.609Z,18.69
2018-06-03T06:15:53.618Z,18.75
2018-06-03T06:16:53.567Z,18.75
2018-06-03T06:17:53.650Z,18.81
2018-06-03T06:18:53.539Z,18.81
2018-06-03T06:19:53.520Z,18.81
2018-06-03T06:20:53.628Z,18.87
2018-06-03T06:21:53.552Z,18.94
2018-06-03T06:22:53.551Z,18.94
2018-06-03T06:23:53.534Z,18.94
2018-06-03T06:24:53.584Z,19
2018-06-03T06:25:53.552Z,18.94
2018-06-03T06:26:53.595Z,19
2018-06-03T06:27:53.538Z,19
2018-06-03T06:28:53.601Z,19
2018-06-03T06:29:53.625Z,19.06
2018-06-03T06:30:53.509Z,19.12
2018-06-03T06:31:53.511Z,19.12
2018-06-03T06:32:53.590Z,19.19
2018-06-03T06:33:53.525Z,19.19
2018-06-03T06:34:53.546Z,19.19
2018-06-03T06:35:53.550Z,19.25
2018-06-03T06:36:53.599Z,19.25
2018-06-03T06:37:53.521Z,19.31
2018-06-03T06:38:53.588Z,19.25
2018-06-03T06:39:53.525Z,19.31
2018-06-03T06:40:53.556Z,19.31
2018-06-03T06:41:53.538Z,19.31
2018-06-03T06:42:53.520Z,19.31
2018-06-03T06:43:53.600Z,19.37
2018-06-03T06:44:53.541Z,19.37
2018-06-03T06:45:53.568Z,19.44
2018-06-03T06:46:53.544Z,19.44
2018-06-03T06:47:53.565Z,19.44
2018-06-03T06:48:53.559Z,19.44
2018-06-03T06:49:53.540Z,19.44
2018-06-03T06:50:53.572Z,19.44
2018-06-03T06:51:53.535Z,19.44
2018-06-03T06:52:54.365Z,19.5
2018-06-03T06:53:53.519Z,19.5
2018-06-03T06:54:53.572Z,19.56
2018-06-03T06:55:53.544Z,19.56
2018-06-03T06:56:53.531Z,19.62
2018-06-03T06:57:53.520Z,19.62
2018-06-03T06:58:53.553Z,19.69
2018-06-03T06:59:53.640Z,19.75
2018-06-03T07:00:53.577Z,19.75
2018-06-03T07:01:53.549Z,19.75
2018-06-03T07:02:53.542Z,19.75
2018-06-03T07:03:53.550Z,19.75
2018-06-03T07:04:53.571Z,19.81
2018-06-03T07:05:53.517Z,19.87
2018-06-03T07:06:53.539Z,19.94
2018-06-03T07:07:53.533Z,19.94
2018-06-03T07:08:53.591Z,19.94
2018-06-03T07:09:53.539Z,20
2018-06-03T07:10:53.536Z,20
2018-06-03T07:11:53.535Z,20.06
2018-06-03T07:12:53.867Z,20.12
2018-06-03T07:13:53.535Z,20.12
2018-06-03T07:14:53.545Z,20.25
2018-06-03T07:15:53.543Z,20.25
2018-06-03T07:16:53.538Z,20.31
2018-06-03T07:17:53.559Z,20.37
2018-06-03T07:18:53.521Z,20.31
2018-06-03T07:19:53.558Z,20.31
2018-06-03T07:20:53.553Z,20.37
2018-06-03T07:21:53.542Z,20.44
2018-06-03T07:22:53.561Z,20.5
2018-06-03T07:23:53.504Z,20.44
2018-06-03T07:24:53.541Z,20.44
2018-06-03T07:25:53.555Z,20.44
2018-06-03T07:26:53.587Z,20.5
2018-06-03T07:27:53.612Z,20.5
2018-06-03T07:28:53.519Z,20.56
2018-06-03T07:29:53.505Z,20.56
2018-06-03T07:30:53.489Z,20.62
2018-06-03T07:31:53.523Z,20.62
2018-06-03T07:32:53.524Z,20.62
2018-06-03T07:33:53.504Z,20.75
2018-06-03T07:34:53.738Z,20.69
2018-06-03T07:35:53.549Z,20.69
2018-06-03T07:36:53.501Z,20.75
2018-06-03T07:37:53.593Z,20.75
2018-06-03T07:38:54.140Z,20.81
2018-06-03T07:39:53.596Z,20.94
2018-06-03T07:40:53.783Z,20.88
2018-06-03T07:41:53.565Z,20.94
2018-06-03T07:42:53.592Z,20.94
2018-06-03T07:43:53.539Z,20.94
2018-06-03T07:44:53.520Z,21
2018-06-03T07:45:53.514Z,20.94
2018-06-03T07:46:53.523Z,20.94
2018-06-03T07:47:53.539Z,21
2018-06-03T07:48:53.539Z,21
2018-06-03T07:49:53.503Z,21
2018-06-03T07:50:53.508Z,21.06
2018-06-03T07:51:53.516Z,21.12
2018-06-03T07:52:53.528Z,21.19
2018-06-03T07:53:53.701Z,21.25
2018-06-03T07:54:53.551Z,21.25
2018-06-03T07:55:53.497Z,21.25
2018-06-03T07:56:53.486Z,21.31
2018-06-03T07:57:53.519Z,21.31
2018-06-03T07:58:53.491Z,21.37
2018-06-03T07:59:53.514Z,21.37
2018-06-03T08:00:53.473Z,21.44
2018-06-03T08:01:53.511Z,21.5
2018-06-03T08:02:53.516Z,21.5
2018-06-03T08:03:53.529Z,21.5
2018-06-03T08:04:53.566Z,21.5
2018-06-03T08:05:53.776Z,21.56
2018-06-03T08:06:53.575Z,21.62
2018-06-03T08:07:53.849Z,21.62
2018-06-03T08:08:53.508Z,21.75
2018-06-03T08:09:53.499Z,21.81
2018-06-03T08:10:53.503Z,21.81
2018-06-03T08:11:53.509Z,21.94
2018-06-03T08:12:53.598Z,22
2018-06-03T08:13:53.500Z,22.06
2018-06-03T08:14:53.517Z,22.13
2018-06-03T08:15:53.472Z,22.19
2018-06-03T08:16:53.548Z,22.25
2018-06-03T08:17:53.657Z,22.31
2018-06-03T08:18:53.563Z,22.31
2018-06-03T08:19:53.491Z,22.37
2018-06-03T08:20:53.497Z,22.37
2018-06-03T08:21:53.548Z,22.31
2018-06-03T08:22:54.410Z,22.31
2018-06-03T08:23:53.492Z,22.31
2018-06-03T08:24:53.601Z,22.31
2018-06-03T08:25:53.521Z,22.31
2018-06-03T08:26:53.490Z,22.31
2018-06-03T08:27:53.520Z,22.25
2018-06-03T08:28:53.607Z,22.25
2018-06-03T08:29:53.957Z,22.19
2018-06-03T08:30:53.720Z,22.25
2018-06-03T08:31:53.527Z,22.25
2018-06-03T08:32:53.799Z,22.25
2018-06-03T08:33:53.582Z,22.31
2018-06-03T08:34:54.317Z,22.31
2018-06-03T08:35:53.535Z,22.25
2018-06-03T08:36:53.602Z,22.31
2018-06-03T08:37:53.696Z,22.31
2018-06-03T08:38:53.641Z,22.31
2018-06-03T08:39:53.662Z,22.37
2018-06-03T08:40:53.504Z,22.37
2018-06-03T08:41:53.517Z,22.37
2018-06-03T08:42:53.541Z,22.37
2018-06-03T08:43:53.659Z,22.44
2018-06-03T08:44:53.582Z,22.5
2018-06-03T08:45:53.983Z,22.56
2018-06-03T08:46:53.490Z,22.56
2018-06-03T08:47:53.512Z,22.62
2018-06-03T08:48:53.600Z,22.69
2018-06-03T08:49:53.513Z,22.69
2018-06-03T08:50:53.516Z,22.75
2018-06-03T08:51:53.476Z,22.69
2018-06-03T08:52:53.568Z,22.81
2018-06-03T08:53:53.525Z,22.94
2018-06-03T08:54:53.508Z,22.94
2018-06-03T08:55:53.671Z,23
2018-06-03T08:56:53.465Z,23
2018-06-03T08:57:53.500Z,22.94
2018-06-03T08:58:53.503Z,23
2018-06-03T08:59:53.550Z,22.94
2018-06-03T09:00:53.684Z,23
2018-06-03T09:01:53.588Z,23
2018-06-03T09:02:53.506Z,23.06
2018-06-03T09:03:53.530Z,23.06
2018-06-03T09:04:53.505Z,23.12
2018-06-03T09:05:53.589Z,23.12
2018-06-03T09:06:54.214Z,23.12
2018-06-03T09:07:53.521Z,23.12
2018-06-03T09:08:53.500Z,23.12
2018-06-03T09:09:53.542Z,23.19
2018-06-03T09:10:53.512Z,23.25
2018-06-03T09:11:53.549Z,23.38
2018-06-03T09:12:53.510Z,23.38
2018-06-03T09:13:53.793Z,23.38
2018-06-03T09:14:53.522Z,23.38
2018-06-03T09:15:53.483Z,23.44
2018-06-03T09:16:53.499Z,23.44
2018-06-03T09:17:53.498Z,23.5
2018-06-03T09:18:54.243Z,23.5
2018-06-03T09:19:53.459Z,23.56
2018-06-03T09:20:53.494Z,23.62
2018-06-03T09:21:53.492Z,23.69
2018-06-03T09:22:53.488Z,23.75
2018-06-03T09:23:53.498Z,23.75
2018-06-03T09:24:53.470Z,23.75
2018-06-03T09:25:53.477Z,23.75
2018-06-03T09:26:53.482Z,23.69
2018-06-03T09:27:53.512Z,23.69
2018-06-03T09:28:53.529Z,23.69
2018-06-03T09:29:53.472Z,23.62
2018-06-03T09:30:53.515Z,23.69
2018-06-03T09:31:53.485Z,23.81
2018-06-03T09:32:53.528Z,23.81
2018-06-03T09:33:53.600Z,23.87
2018-06-03T09:34:53.452Z,23.87
2018-06-03T09:35:53.465Z,23.87
2018-06-03T09:36:53.636Z,23.94
2018-06-03T09:37:53.536Z,24
2018-06-03T09:38:53.567Z,24
2018-06-03T09:39:53.486Z,24
2018-06-03T09:40:53.480Z,24.06
2018-06-03T09:41:53.660Z,24.06
2018-06-03T09:42:53.656Z,24.06
2018-06-03T09:43:54.733Z,24.12
2018-06-03T09:44:53.582Z,23.94
2018-06-03T09:45:53.686Z,24.12
2018-06-03T09:46:53.581Z,24.06
2018-06-03T09:47:53.760Z,24
2018-06-03T09:48:53.539Z,24.06
2018-06-03T09:49:53.617Z,24
2018-06-03T09:50:53.829Z,24
2018-06-03T09:51:53.613Z,24.06
2018-06-03T09:52:53.631Z,24.12
2018-06-03T09:53:53.627Z,24.19
2018-06-03T09:54:53.686Z,24.25
2018-06-03T09:55:54.401Z,24.44
2018-06-03T09:56:53.519Z,24.5
2018-06-03T09:57:53.524Z,24.37
2018-06-03T09:58:53.500Z,24.25
2018-06-03T09:59:53.575Z,24.25
2018-06-03T10:00:53.615Z,24.19
2018-06-03T10:01:53.487Z,24.06
2018-06-03T10:02:53.599Z,24.06
2018-06-03T10:03:53.694Z,24.06
2018-06-03T10:04:53.614Z,24.06
2018-06-03T10:05:53.609Z,24
2018-06-03T10:06:53.621Z,24
2018-06-03T10:07:56.023Z,24
2018-06-03T10:08:53.564Z,24.06
2018-06-03T10:09:54.577Z,24.12
2018-06-03T10:10:53.611Z,24.19
2018-06-03T10:11:53.515Z,24.25
2018-06-03T10:12:53.487Z,24.19
2018-06-03T10:13:53.699Z,24.25
2018-06-03T10:14:53.661Z,24.19
2018-06-03T10:15:53.526Z,24.25
2018-06-03T10:16:53.632Z,24.25
2018-06-03T10:17:53.609Z,24.25
2018-06-03T10:18:53.614Z,24.31
2018-06-03T10:19:53.563Z,24.31
2018-06-03T10:20:53.724Z,24.44
2018-06-03T10:21:53.828Z,24.44
2018-06-03T10:22:53.739Z,24.44
2018-06-03T10:23:53.630Z,24.44
2018-06-03T10:24:54.762Z,24.5
2018-06-03T10:25:53.469Z,24.56
2018-06-03T10:26:53.882Z,24.56
2018-06-03T10:27:53.471Z,24.63
2018-06-03T10:28:53.503Z,24.69
2018-06-03T10:29:53.476Z,24.69
2018-06-03T10:30:53.508Z,24.75
2018-06-03T10:31:53.479Z,24.75
2018-06-03T10:32:53.463Z,24.81
2018-06-03T10:33:53.449Z,24.94
2018-06-03T10:34:53.466Z,24.87
2018-06-03T10:35:53.498Z,24.81
2018-06-03T10:36:53.528Z,24.87
2018-06-03T10:37:53.481Z,24.87
2018-06-03T10:38:53.492Z,24.94
2018-06-03T10:39:53.469Z,25
2018-06-03T10:40:53.448Z,25
2018-06-03T10:41:53.479Z,25.06
2018-06-03T10:42:53.485Z,25.12
2018-06-03T10:43:54.048Z,25.12
2018-06-03T10:44:53.458Z,25.25
2018-06-03T10:45:53.455Z,25.25
2018-06-03T10:46:53.499Z,25.25
2018-06-03T10:47:53.473Z,25.31
2018-06-03T10:48:53.713Z,25.31
2018-06-03T10:49:53.469Z,25.37
2018-06-03T10:50:54.107Z,25.37
2018-06-03T10:51:53.474Z,25.37
2018-06-03T10:52:53.447Z,25.25
2018-06-03T10:53:53.877Z,25.19
2018-06-03T10:54:53.517Z,25.19
2018-06-03T10:55:53.735Z,25.12
2018-06-03T10:56:53.564Z,25.12
2018-06-03T10:57:53.457Z,25.12
2018-06-03T10:58:53.499Z,25.25
2018-06-03T10:59:54.323Z,25.12
2018-06-03T11:00:53.591Z,25.12
2018-06-03T11:01:53.445Z,25
2018-06-03T11:02:53.469Z,25
2018-06-03T11:03:53.449Z,25
2018-06-03T11:04:53.667Z,25
2018-06-03T11:05:50.967Z,25.06
2018-06-03T11:06:50.910Z,25
2018-06-03T11:07:51.077Z,25
2018-06-03T11:08:51.182Z,24.94
2018-06-03T11:09:50.915Z,25
2018-06-03T11:10:50.903Z,25
2018-06-03T11:11:50.911Z,25
2018-06-03T11:12:50.898Z,25
2018-06-03T11:13:50.926Z,24.94
2018-06-03T11:14:50.883Z,24.94
2018-06-03T11:15:50.892Z,24.94
2018-06-03T11:16:50.906Z,24.94
2018-06-03T11:17:50.888Z,25
2018-06-03T11:18:50.880Z,25.06
2018-06-03T11:19:50.916Z,25.25
2018-06-03T11:20:50.993Z,25.31
2018-06-03T11:21:50.922Z,25.25
2018-06-03T11:22:50.963Z,25.19
2018-06-03T11:23:50.887Z,25.19
2018-06-03T11:24:50.888Z,25.25
2018-06-03T11:25:50.918Z,25.37
2018-06-03T11:26:51.001Z,25.5
2018-06-03T11:27:51.059Z,25.56
2018-06-03T11:28:51.070Z,25.75
2018-06-03T11:29:50.928Z,25.81
2018-06-03T11:30:51.064Z,25.81
2018-06-03T11:31:50.959Z,25.75
2018-06-03T11:32:50.913Z,25.75
2018-06-03T11:33:50.911Z,25.62
2018-06-03T11:34:50.899Z,25.62
2018-06-03T11:35:50.885Z,25.56
2018-06-03T11:36:51.069Z,25.56
2018-06-03T11:37:50.861Z,25.56
2018-06-03T11:38:50.882Z,25.56
2018-06-03T11:39:50.969Z,25.56
2018-06-03T11:40:50.911Z,25.5
2018-06-03T11:41:50.898Z,25.5
2018-06-03T11:42:50.879Z,25.5
2018-06-03T11:43:50.992Z,25.56
2018-06-03T11:44:50.864Z,25.62
2018-06-03T11:45:50.906Z,25.69
2018-06-03T11:46:50.924Z,25.81
2018-06-03T11:47:50.899Z,25.88
2018-06-03T11:48:50.863Z,25.94
2018-06-03T11:49:50.900Z,26
2018-06-03T11:50:50.890Z,26.06
2018-06-03T11:51:50.857Z,26.06
2018-06-03T11:52:50.956Z,26.06
2018-06-03T11:53:51.215Z,26.12
2018-06-03T11:54:50.877Z,26.19
2018-06-03T11:55:50.945Z,26.12
2018-06-03T11:56:50.894Z,26.19
2018-06-03T11:57:51.133Z,26.19
2018-06-03T11:58:50.906Z,26.25
2018-06-03T11:59:50.868Z,26.31
2018-06-03T12:00:51.054Z,26.37
2018-06-03T12:01:51.222Z,26.44
2018-06-03T12:02:50.932Z,26.44
2018-06-03T12:03:50.894Z,26.37
2018-06-03T12:04:50.902Z,26.5
2018-06-03T12:05:50.929Z,26.5
2018-06-03T12:06:50.875Z,26.56
2018-06-03T12:07:51.045Z,26.62
2018-06-03T12:08:50.901Z,26.75
2018-06-03T12:09:50.865Z,26.75
2018-06-03T12:10:50.902Z,26.62
2018-06-03T12:11:50.906Z,26.69
2018-06-03T12:12:50.919Z,26.69
2018-06-03T12:13:50.873Z,26.69
2018-06-03T12:14:50.923Z,26.69
2018-06-03T12:15:51.039Z,26.87
2018-06-03T12:16:50.877Z,26.81
2018-06-03T12:17:50.892Z,26.87
2018-06-03T12:18:51.113Z,26.87
2018-06-03T12:19:51.223Z,26.87
2018-06-03T12:20:50.955Z,26.94
2018-06-03T12:21:50.910Z,27
2018-06-03T12:22:50.881Z,27
2018-06-03T12:23:50.934Z,27
2018-06-03T12:24:50.895Z,27
2018-06-03T12:25:50.875Z,27
2018-06-03T12:26:50.924Z,27
2018-06-03T12:27:51.017Z,27.06
2018-06-03T12:28:50.876Z,27.06
2018-06-03T12:29:50.879Z,27.19
2018-06-03T12:30:50.964Z,27.19
2018-06-03T12:31:51.119Z,27.19
2018-06-03T12:32:50.903Z,27.19
2018-06-03T12:33:50.872Z,27.25
2018-06-03T12:34:50.853Z,27.25
2018-06-03T12:35:50.865Z,27.31
2018-06-03T12:36:50.903Z,27.37
2018-06-03T12:37:50.899Z,27.44
2018-06-03T12:38:50.861Z,27.44
2018-06-03T12:39:50.917Z,27.5
2018-06-03T12:40:50.894Z,27.5
2018-06-03T12:41:51.217Z,27.56
2018-06-03T12:42:51.021Z,27.5
2018-06-03T12:43:51.080Z,27.44
2018-06-03T12:44:50.869Z,27.5
2018-06-03T12:45:50.953Z,27.56
2018-06-03T12:46:50.868Z,27.56
2018-06-03T12:47:50.861Z,27.62
2018-06-03T12:48:50.875Z,27.5
2018-06-03T12:49:50.875Z,27.44
2018-06-03T12:50:50.868Z,27.44
2018-06-03T12:51:50.922Z,27.5
2018-06-03T12:52:50.873Z,27.56
2018-06-03T12:53:50.877Z,27.62
2018-06-03T12:54:51.117Z,27.56
2018-06-03T12:55:50.949Z,27.37
2018-06-03T12:56:50.855Z,27.31
2018-06-03T12:57:50.862Z,27.25
2018-06-03T12:58:50.916Z,27.25
2018-06-03T12:59:50.861Z,27.31
2018-06-03T13:00:50.828Z,27.31
2018-06-03T13:01:50.847Z,27.25
2018-06-03T13:02:50.873Z,27.19
2018-06-03T13:03:50.859Z,27.19
2018-06-03T13:04:50.873Z,27.25